Time;durP1;ratioP1;P1;durP2;ratioP2;P2;SDS_P1;SDS_P2;PMS_P1;PMS_P2;Temp;Humidity;BMP_temperature;BMP_pressure;BME280_temperature;BME280_humidity;BME280_pressure;Samples;Min_cycle;Max_cycle;Signal;HPM_P1;HPM_P2
2023/04/04 00:00:54;;;;;;;6.38;1.30;;;;;;;;;;5064943;27;88848;-83
2023/04/04 00:03:20;;;;;;;5.68;1.70;;;;;;;;;;5046416;27;89718;-81
2023/04/04 00:05:47;;;;;;;16.20;1.83;;;;;;;;;;5046928;27;89310;-82
2023/04/04 00:08:14;;;;;;;11.55;2.10;;;;;;;;;;5063256;27;90466;-82
2023/04/04 00:10:40;;;;;;;5.70;1.98;;;;;;;;;;5049889;27;88761;-82
2023/04/04 00:13:08;;;;;;;4.85;1.85;;;;;;;;;;5063892;27;88064;-82
2023/04/04 00:15:35;;;;;;;7.38;2.08;;;;;;;;;;5064386;27;88327;-82
2023/04/04 00:18:02;;;;;;;4.88;1.80;;;;;;;;;;5046393;27;88181;-82
2023/04/04 00:20:30;;;;;;;5.55;2.05;;;;;;;;;;5064865;27;88429;-83
2023/04/04 00:22:56;;;;;;;4.75;1.80;;;;;;;;;;5046174;27;89968;-82
2023/04/04 00:25:23;;;;;;;7.78;2.17;;;;;;;;;;5063918;27;88086;-83
2023/04/04 00:27:50;;;;;;;4.88;1.90;;;;;;;;;;5064248;27;89700;-82
2023/04/04 00:30:17;;;;;;;5.95;2.00;;;;;;;;;;5046756;27;89698;-83
2023/04/04 00:32:43;;;;;;;5.35;2.00;;;;;;;;;;5066843;27;87826;-83
2023/04/04 00:35:10;;;;;;;5.05;2.03;;;;;;;;;;5045706;27;89259;-82
2023/04/04 00:37:36;;;;;;;4.35;1.80;;;;;;;;;;5064559;27;89132;-82
2023/04/04 00:40:03;;;;;;;5.38;1.90;;;;;;;;;;5065030;27;88378;-82
2023/04/04 00:42:29;;;;;;;4.20;1.73;;;;;;;;;;5064249;27;88074;-83
2023/04/04 00:44:56;;;;;;;4.00;1.83;;;;;;;;;;5065078;27;88823;-83
2023/04/04 00:47:23;;;;;;;4.60;2.03;;;;;;;;;;5044246;27;89950;-83
2023/04/04 00:49:50;;;;;;;6.68;2.00;;;;;;;;;;5060786;27;87880;-83
2023/04/04 00:52:16;;;;;;;5.03;1.90;;;;;;;;;;5064977;27;88391;-83
2023/04/04 00:54:43;;;;;;;5.05;1.80;;;;;;;;;;5049051;27;88562;-83
2023/04/04 00:57:10;;;;;;;3.95;1.70;;;;;;;;;;5028259;27;89917;-83
2023/04/04 00:59:36;;;;;;;7.03;2.38;;;;;;;;;;5061078;27;89058;-83
2023/04/04 01:02:03;;;;;;;4.80;1.83;;;;;;;;;;5041752;27;89809;-82
2023/04/04 01:04:30;;;;;;;5.32;2.13;;;;;;;;;;5064482;27;88368;-83
2023/04/04 01:06:57;;;;;;;6.57;1.98;;;;;;;;;;5045295;27;91205;-83
2023/04/04 01:09:24;;;;;;;4.68;2.15;;;;;;;;;;5063676;27;89666;-83
2023/04/04 01:11:54;;;;;;;5.47;1.77;;;;;;;;;;5045497;27;88424;-83
2023/04/04 01:14:21;;;;;;;5.00;1.90;;;;;;;;;;5046059;27;90086;-82
2023/04/04 01:16:51;;;;;;;7.50;2.08;;;;;;;;;;5048546;27;89689;-82
2023/04/04 01:19:23;;;;;;;4.82;1.90;;;;;;;;;;5044549;27;90830;-82
2023/04/04 01:21:51;;;;;;;4.75;1.98;;;;;;;;;;5045047;27;89100;-82
2023/04/04 01:24:23;;;;;;;6.78;2.35;;;;;;;;;;5045535;27;90564;-82
2023/04/04 01:26:54;;;;;;;5.13;1.83;;;;;;;;;;5044407;27;90088;-82
2023/04/04 01:29:21;;;;;;;5.00;1.90;;;;;;;;;;5060679;27;88047;-82
2023/04/04 01:31:48;;;;;;;;;;;;;;;;;;5045414;27;90624;-82
2023/04/04 01:34:15;;;;;;;5.45;1.90;;;;;;;;;;5046264;27;110049;-82
2023/04/04 01:36:46;;;;;;;4.97;1.92;;;;;;;;;;5063765;27;87936;-83
2023/04/04 01:39:26;;;;;;;4.40;1.70;;;;;;;;;;5061691;27;89705;-83
2023/04/04 01:41:55;;;;;;;5.45;1.83;;;;;;;;;;5045411;27;89680;-83
2023/04/04 01:44:22;;;;;;;4.93;1.90;;;;;;;;;;5060694;27;89972;-83
2023/04/04 01:46:53;;;;;;;4.45;1.83;;;;;;;;;;5044703;27;89518;-82
2023/04/04 01:49:21;;;;;;;5.68;1.85;;;;;;;;;;5025453;27;88828;-82
2023/04/04 01:51:49;;;;;;;5.63;2.00;;;;;;;;;;5044837;27;91452;-82
2023/04/04 01:54:17;;;;;;;7.55;2.40;;;;;;;;;;5062090;27;88870;-82
2023/04/04 01:56:45;;;;;;;6.53;1.90;;;;;;;;;;5027587;27;87659;-83
2023/04/04 01:59:11;;;;;;;6.15;2.10;;;;;;;;;;5043940;27;91285;-82
2023/04/04 02:01:38;;;;;;;6.22;2.10;;;;;;;;;;5047464;27;90488;-82
2023/04/04 02:04:05;;;;;;;6.05;2.13;;;;;;;;;;5044602;27;91273;-82
2023/04/04 02:06:32;;;;;;;;;;;;;;;;;;5060462;27;87572;-82
2023/04/04 02:08:59;;;;;;;6.03;2.13;;;;;;;;;;5040180;27;89767;-81
2023/04/04 02:11:26;;;;;;;7.25;2.20;;;;;;;;;;5024575;28;90804;-81
2023/04/04 02:13:53;;;;;;;4.75;2.00;;;;;;;;;;5044362;27;89042;-83
2023/04/04 02:16:20;;;;;;;5.20;2.10;;;;;;;;;;5060584;27;89994;-82
2023/04/04 02:18:46;;;;;;;4.30;2.00;;;;;;;;;;5044253;27;91292;-82
2023/04/04 02:21:13;;;;;;;7.65;1.80;;;;;;;;;;5046940;27;88274;-83
2023/04/04 02:23:40;;;;;;;8.93;1.90;;;;;;;;;;5026460;27;90050;-83
2023/04/04 02:26:06;;;;;;;7.30;1.95;;;;;;;;;;5045193;27;90374;-83
2023/04/04 02:28:33;;;;;;;6.10;2.30;;;;;;;;;;5062812;27;87795;-83
2023/04/04 02:31:02;;;;;;;5.40;1.90;;;;;;;;;;5041687;27;90699;-83
2023/04/04 02:33:29;;;;;;;5.68;2.10;;;;;;;;;;5061511;27;88713;-83
2023/04/04 02:35:59;;;;;;;5.32;2.08;;;;;;;;;;5028353;27;89079;-83
2023/04/04 02:38:27;;;;;;;7.38;2.15;;;;;;;;;;5043409;27;90248;-82
2023/04/04 02:40:54;;;;;;;6.00;2.10;;;;;;;;;;5044354;27;90433;-83
2023/04/04 02:43:20;;;;;;;4.88;2.03;;;;;;;;;;5064739;27;88881;-83
2023/04/04 02:45:48;;;;;;;6.78;2.00;;;;;;;;;;5044557;27;90349;-83
2023/04/04 02:48:26;;;;;;;6.82;2.20;;;;;;;;;;5028994;27;88601;-83
2023/04/04 02:50:56;;;;;;;4.53;1.80;;;;;;;;;;5028397;27;90336;-83
2023/04/04 02:53:23;;;;;;;4.72;1.90;;;;;;;;;;5061291;27;89279;-82
2023/04/04 02:55:52;;;;;;;4.45;1.90;;;;;;;;;;5045034;27;88995;-82
2023/04/04 02:58:19;;;;;;;5.45;2.20;;;;;;;;;;5043691;27;89693;-81
2023/04/04 03:00:52;;;;;;;5.13;2.20;;;;;;;;;;5051054;27;90852;-81
2023/04/04 03:03:18;;;;;;;5.60;2.00;;;;;;;;;;5034850;27;89055;-82
2023/04/04 03:05:48;;;;;;;5.75;2.00;;;;;;;;;;5047462;27;91728;-82
2023/04/04 03:08:15;;;;;;;6.00;2.05;;;;;;;;;;5043347;27;89844;-83
2023/04/04 03:10:41;;;;;;;5.22;2.03;;;;;;;;;;5045349;27;89780;-83
2023/04/04 03:13:08;;;;;;;5.40;2.00;;;;;;;;;;5064212;27;91210;-83
2023/04/04 03:15:35;;;;;;;5.97;2.05;;;;;;;;;;5047507;27;90125;-81
2023/04/04 03:18:02;;;;;;;6.38;2.00;;;;;;;;;;5066237;27;88162;-81
2023/04/04 03:20:30;;;;;;;5.38;1.95;;;;;;;;;;5065129;27;89246;-82
2023/04/04 03:22:57;;;;;;;6.00;2.13;;;;;;;;;;5047513;27;88914;-82
2023/04/04 03:25:24;;;;;;;5.53;2.05;;;;;;;;;;5046775;27;90902;-82
2023/04/04 03:27:51;;;;;;;5.13;1.90;;;;;;;;;;5068143;27;88613;-81
2023/04/04 03:30:23;;;;;;;5.70;2.22;;;;;;;;;;5047665;27;88713;-82
2023/04/04 03:32:50;;;;;;;5.13;2.05;;;;;;;;;;5064835;27;88386;-81
2023/04/04 03:35:16;;;;;;;7.25;2.10;;;;;;;;;;5047049;27;89454;-81
2023/04/04 03:37:43;;;;;;;5.55;2.05;;;;;;;;;;5029972;27;90700;-82
2023/04/04 03:40:09;;;;;;;6.97;2.22;;;;;;;;;;5041994;27;90131;-82
2023/04/04 03:42:37;;;;;;;5.22;2.17;;;;;;;;;;5017266;27;89370;-82
2023/04/04 03:45:08;;;;;;;7.13;2.25;;;;;;;;;;5047567;27;89968;-82
2023/04/04 03:47:35;;;;;;;6.28;2.35;;;;;;;;;;5030431;27;91755;-82
2023/04/04 03:50:02;;;;;;;5.97;2.10;;;;;;;;;;5050173;27;89263;-82
2023/04/04 03:52:30;;;;;;;5.43;2.10;;;;;;;;;;5030427;27;91185;-82
2023/04/04 03:54:56;;;;;;;6.50;2.15;;;;;;;;;;5063110;27;88708;-83
2023/04/04 03:57:24;;;;;;;5.15;1.98;;;;;;;;;;5062862;27;90370;-83
2023/04/04 03:59:51;;;;;;;8.68;2.28;;;;;;;;;;5046921;27;91142;-83
2023/04/04 04:02:20;;;;;;;5.78;2.22;;;;;;;;;;5046582;27;89570;-83
2023/04/04 04:04:47;;;;;;;6.03;2.25;;;;;;;;;;5046204;27;91240;-83
2023/04/04 04:07:13;;;;;;;5.38;2.20;;;;;;;;;;5065790;27;88348;-83
2023/04/04 04:09:40;;;;;;;6.43;2.20;;;;;;;;;;5064179;27;89893;-82
2023/04/04 04:12:07;;;;;;;5.22;1.95;;;;;;;;;;5066867;27;89678;-81
2023/04/04 04:14:33;;;;;;;6.57;2.25;;;;;;;;;;5029313;27;89085;-83
2023/04/04 04:17:01;;;;;;;7.15;2.13;;;;;;;;;;5030010;27;88704;-82
2023/04/04 04:19:27;;;;;;;9.48;2.38;;;;;;;;;;5028766;27;90350;-82
2023/04/04 04:21:55;;;;;;;;;;;;;;;;;;5047481;27;88784;-82
2023/04/04 04:24:21;;;;;;;6.70;1.98;;;;;;;;;;5046924;27;118301;-82
2023/04/04 04:26:48;;;;;;;6.78;2.10;;;;;;;;;;5030132;27;90674;-82
2023/04/04 04:29:15;;;;;;;5.75;2.10;;;;;;;;;;5044902;27;89561;-81
2023/04/04 04:31:42;;;;;;;6.03;2.03;;;;;;;;;;5033252;27;88085;-82
2023/04/04 04:34:09;;;;;;;6.32;2.30;;;;;;;;;;5029476;27;88813;-81
2023/04/04 04:36:37;;;;;;;5.75;2.33;;;;;;;;;;5046743;27;89068;-81
2023/04/04 04:39:27;;;;;;;5.30;2.17;;;;;;;;;;5052115;27;88879;-81
2023/04/04 04:42:08;;;;;;;5.70;2.42;;;;;;;;;;5045558;27;88845;-81
2023/04/04 04:44:42;;;;;;;7.05;2.10;;;;;;;;;;5029523;27;91025;-82
2023/04/04 04:47:09;;;;;;;7.50;2.22;;;;;;;;;;5045078;27;90823;-82
2023/04/04 04:49:36;;;;;;;8.60;2.65;;;;;;;;;;5045405;27;88521;-82
2023/04/04 04:52:06;;;;;;;5.38;2.10;;;;;;;;;;5046912;27;89156;-82
2023/04/04 04:54:33;;;;;;;5.82;2.20;;;;;;;;;;5030192;27;88410;-82
2023/04/04 04:57:01;;;;;;;7.07;2.33;;;;;;;;;;5039268;27;94161;-82
2023/04/04 04:59:28;;;;;;;6.05;2.30;;;;;;;;;;5040942;27;90127;-82
2023/04/04 05:01:55;;;;;;;6.78;2.40;;;;;;;;;;5046221;27;90580;-81
2023/04/04 05:04:23;;;;;;;6.50;2.10;;;;;;;;;;5063677;27;88086;-82
2023/04/04 05:06:59;;;;;;;5.25;2.10;;;;;;;;;;5045401;27;91441;-82
2023/04/04 05:09:26;;;;;;;6.00;2.05;;;;;;;;;;5043582;27;89260;-81
2023/04/04 05:11:52;;;;;;;4.88;2.00;;;;;;;;;;5045976;27;90304;-82
2023/04/04 05:14:24;;;;;;;6.20;2.10;;;;;;;;;;5043130;27;90746;-81
2023/04/04 05:16:55;;;;;;;5.90;2.00;;;;;;;;;;5048431;27;89216;-82
2023/04/04 05:19:26;;;;;;;6.00;2.03;;;;;;;;;;5043944;27;91238;-82
2023/04/04 05:21:55;;;;;;;6.63;2.20;;;;;;;;;;5045629;27;88705;-81
2023/04/04 05:24:36;;;;;;;5.50;2.00;;;;;;;;;;5044837;27;90212;-81
2023/04/04 05:27:02;;;;;;;5.50;2.25;;;;;;;;;;5044877;27;90954;-81
2023/04/04 05:29:36;;;;;;;6.95;2.28;;;;;;;;;;5044655;27;91135;-81
2023/04/04 05:32:03;;;;;;;5.03;2.20;;;;;;;;;;5044994;27;90658;-80
2023/04/04 05:34:31;;;;;;;5.43;2.05;;;;;;;;;;5043135;27;90916;-82
2023/04/04 05:36:58;;;;;;;7.40;2.22;;;;;;;;;;5045449;27;90099;-82
2023/04/04 05:39:25;;;;;;;5.95;2.00;;;;;;;;;;5045420;27;90596;-82
2023/04/04 05:41:59;;;;;;;6.63;1.85;;;;;;;;;;5044515;27;89472;-82
2023/04/04 05:44:29;;;;;;;4.80;1.90;;;;;;;;;;5027888;27;91203;-82
2023/04/04 05:46:56;;;;;;;4.05;1.52;;;;;;;;;;5045857;27;90982;-82
2023/04/04 05:49:23;;;;;;;4.78;1.90;;;;;;;;;;5043037;27;90304;-82
2023/04/04 05:51:56;;;;;;;6.35;1.85;;;;;;;;;;5064096;27;88687;-82
2023/04/04 05:54:23;;;;;;;4.97;1.60;;;;;;;;;;5044233;27;90791;-80
2023/04/04 05:56:51;;;;;;;4.30;1.60;;;;;;;;;;5026266;27;89328;-81
2023/04/04 05:59:29;;;;;;;3.95;1.80;;;;;;;;;;5041491;27;90405;-81
2023/04/04 06:02:00;;;;;;;3.92;1.63;;;;;;;;;;5025727;28;90945;-81
2023/04/04 06:04:28;;;;;;;5.40;1.60;;;;;;;;;;5037997;27;90379;-80
2023/04/04 06:06:57;;;;;;;9.10;1.73;;;;;;;;;;5059271;27;88058;-81
2023/04/04 06:09:24;;;;;;;4.00;1.52;;;;;;;;;;5023247;27;90370;-81
2023/04/04 06:11:50;;;;;;;5.45;1.50;;;;;;;;;;5036829;28;90835;-86
2023/04/04 06:14:17;;;;;;;4.30;1.35;;;;;;;;;;5018823;27;88618;-82
2023/04/04 06:16:45;;;;;;;6.55;1.48;;;;;;;;;;5044154;27;87928;-86
2023/04/04 06:19:13;;;;;;;5.05;1.60;;;;;;;;;;5041074;27;90102;-82
2023/04/04 06:21:40;;;;;;;3.90;1.67;;;;;;;;;;5042689;27;91849;-83
2023/04/04 06:24:08;;;;;;;4.32;1.52;;;;;;;;;;5045148;27;88166;-84
2023/04/04 06:26:35;;;;;;;4.28;1.50;;;;;;;;;;5043876;27;91025;-83
2023/04/04 06:29:02;;;;;;;4.72;1.83;;;;;;;;;;5024450;27;87861;-82
2023/04/04 06:31:32;;;;;;;6.10;1.67;;;;;;;;;;5034420;27;94906;-82
2023/04/04 06:34:05;;;;;;;8.05;1.67;;;;;;;;;;5028072;27;90659;-82
2023/04/04 06:36:38;;;;;;;4.65;1.60;;;;;;;;;;5038172;27;88156;-82
2023/04/04 06:39:05;;;;;;;4.07;1.52;;;;;;;;;;5055767;27;88835;-83
2023/04/04 06:41:31;;;;;;;4.40;1.65;;;;;;;;;;5060645;27;94039;-82
2023/04/04 06:43:59;;;;;;;3.72;1.60;;;;;;;;;;5044426;27;89632;-82
2023/04/04 06:46:26;;;;;;;3.83;1.50;;;;;;;;;;5041201;27;88428;-82
2023/04/04 06:48:53;;;;;;;4.00;1.45;;;;;;;;;;5060890;27;87949;-82
2023/04/04 06:51:20;;;;;;;3.72;1.55;;;;;;;;;;5024196;27;90904;-82
2023/04/04 06:53:47;;;;;;;3.30;1.30;;;;;;;;;;5034978;27;90739;-83
2023/04/04 06:56:15;;;;;;;4.88;1.73;;;;;;;;;;5040468;27;89441;-82
2023/04/04 06:58:42;;;;;;;3.53;1.60;;;;;;;;;;5039830;27;90865;-83
2023/04/04 07:01:09;;;;;;;3.97;1.45;;;;;;;;;;5042583;27;90487;-84
2023/04/04 07:03:36;;;;;;;5.38;1.60;;;;;;;;;;5062577;27;88498;-81
2023/04/04 07:06:05;;;;;;;2.67;1.40;;;;;;;;;;5041691;27;89002;-83
2023/04/04 07:08:32;;;;;;;3.78;1.70;;;;;;;;;;5040231;27;87959;-83
2023/04/04 07:11:02;;;;;;;5.72;1.90;;;;;;;;;;5061474;27;88760;-82
2023/04/04 07:13:29;;;;;;;3.95;1.40;;;;;;;;;;5060255;27;88168;-80
2023/04/04 07:15:55;;;;;;;3.78;1.55;;;;;;;;;;5044535;27;90239;-81
2023/04/04 07:18:22;;;;;;;6.18;1.70;;;;;;;;;;5025221;27;90268;-82
2023/04/04 07:20:51;;;;;;;3.50;1.50;;;;;;;;;;5044670;27;91227;-80
2023/04/04 07:23:18;;;;;;;4.38;1.50;;;;;;;;;;5043454;27;88201;-81
2023/04/04 07:25:45;;;;;;;3.50;1.50;;;;;;;;;;5062116;27;88512;-81
2023/04/04 07:28:12;;;;;;;3.92;1.60;;;;;;;;;;5065525;27;87627;-81
2023/04/04 07:30:39;;;;;;;4.32;1.67;;;;;;;;;;5025985;27;89973;-82
2023/04/04 07:33:06;;;;;;;5.28;1.60;;;;;;;;;;5063676;27;88383;-83
2023/04/04 07:35:33;;;;;;;4.18;1.70;;;;;;;;;;5040097;27;89665;-82
2023/04/04 07:38:27;;;;;;;3.88;1.60;;;;;;;;;;5039657;27;89429;-83
2023/04/04 07:40:54;;;;;;;;;;;;;;;;;;5063044;27;88191;-81
2023/04/04 07:43:21;;;;;;;2.92;1.50;;;;;;;;;;5062755;27;87839;-82
2023/04/04 07:45:52;;;;;;;4.53;1.60;;;;;;;;;;5038051;27;89951;-81
2023/04/04 07:48:19;;;;;;;3.08;1.42;;;;;;;;;;5061145;27;88132;-81
2023/04/04 07:50:48;;;;;;;3.47;1.45;;;;;;;;;;5059398;27;87941;-82
2023/04/04 07:53:14;;;;;;;3.15;1.50;;;;;;;;;;5041768;27;88065;-82
2023/04/04 07:55:41;;;;;;;4.10;1.60;;;;;;;;;;5060496;27;87964;-81
2023/04/04 07:58:07;;;;;;;3.63;1.40;;;;;;;;;;5062006;27;89561;-81
2023/04/04 08:00:34;;;;;;;3.25;1.52;;;;;;;;;;5060933;27;89484;-83
2023/04/04 08:03:01;;;;;;;2.45;1.40;;;;;;;;;;5060836;27;87681;-82
2023/04/04 08:05:28;;;;;;;3.35;1.40;;;;;;;;;;5028649;27;91046;-81
2023/04/04 08:07:54;;;;;;;3.05;1.40;;;;;;;;;;5029778;28;88194;-81
2023/04/04 08:10:21;;;;;;;3.92;1.48;;;;;;;;;;5053590;27;87755;-82
2023/04/04 08:12:47;;;;;;;3.58;1.50;;;;;;;;;;5061858;27;87912;-81
2023/04/04 08:15:16;;;;;;;3.67;1.52;;;;;;;;;;5046370;27;89098;-81
2023/04/04 08:17:43;;;;;;;5.25;1.52;;;;;;;;;;5058880;27;88143;-81
2023/04/04 08:20:10;;;;;;;4.28;1.40;;;;;;;;;;5044099;27;87880;-80
2023/04/04 08:22:38;;;;;;;4.57;1.63;;;;;;;;;;5063893;27;89318;-81
2023/04/04 08:25:05;;;;;;;3.08;1.33;;;;;;;;;;5054941;27;89001;-83
2023/04/04 08:27:31;;;;;;;3.83;1.40;;;;;;;;;;5060491;27;93208;-82
2023/04/04 08:29:58;;;;;;;4.05;1.35;;;;;;;;;;5059381;27;88992;-83
2023/04/04 08:32:25;;;;;;;3.47;1.50;;;;;;;;;;5063143;27;88379;-82
2023/04/04 08:34:51;;;;;;;3.75;1.67;;;;;;;;;;5045699;27;88936;-82
2023/04/04 08:37:17;;;;;;;3.00;1.40;;;;;;;;;;5060278;27;88552;-81
2023/04/04 08:39:44;;;;;;;3.75;1.50;;;;;;;;;;5045023;27;88285;-81
2023/04/04 08:42:11;;;;;;;4.90;1.83;;;;;;;;;;5061344;27;86968;-82
2023/04/04 08:44:39;;;;;;;4.30;1.50;;;;;;;;;;5035655;28;88767;-81
2023/04/04 08:47:07;;;;;;;4.28;1.40;;;;;;;;;;5057440;27;88983;-81
2023/04/04 08:49:37;;;;;;;3.53;1.40;;;;;;;;;;5044307;27;93817;-82
2023/04/04 08:52:05;;;;;;;3.63;1.48;;;;;;;;;;5028061;27;88792;-82
2023/04/04 08:54:33;;;;;;;3.38;1.33;;;;;;;;;;5057918;27;88277;-82
2023/04/04 08:56:59;;;;;;;3.15;1.40;;;;;;;;;;5057306;27;88750;-82
2023/04/04 08:59:26;;;;;;;2.47;1.15;;;;;;;;;;5062292;27;88589;-82
2023/04/04 09:02:22;;;;;;;2.80;1.23;;;;;;;;;;5041325;27;87819;-82
2023/04/04 09:04:50;;;;;;;8.40;1.40;;;;;;;;;;5051561;27;88403;-81
2023/04/04 09:07:31;;;;;;;3.70;1.27;;;;;;;;;;5037685;27;94410;-82
2023/04/04 09:09:58;;;;;;;4.97;1.40;;;;;;;;;;5023162;28;88778;-81
2023/04/04 09:12:25;;;;;;;3.20;1.20;;;;;;;;;;5032529;28;87989;-81
2023/04/04 09:14:51;;;;;;;3.42;1.40;;;;;;;;;;5034744;28;89011;-81
2023/04/04 09:17:18;;;;;;;3.72;1.30;;;;;;;;;;5036549;27;87663;-82
2023/04/04 09:19:45;;;;;;;3.95;1.23;;;;;;;;;;5022582;28;88721;-82
2023/04/04 09:22:14;;;;;;;3.08;1.20;;;;;;;;;;5033964;28;88092;-85
2023/04/04 09:24:41;;;;;;;2.90;1.13;;;;;;;;;;5039169;27;87849;-83
2023/04/04 09:27:10;;;;;;;;;;;;;;;;;;5038719;27;88317;-82
2023/04/04 09:29:38;;;;;;;3.75;1.20;;;;;;;;;;5019382;28;117804;-83
2023/04/04 09:32:08;;;;;;;3.25;1.13;;;;;;;;;;5036680;27;88409;-83
2023/04/04 09:34:36;;;;;;;1.85;1.10;;;;;;;;;;5039904;27;88818;-82
2023/04/04 09:37:04;;;;;;;2.50;1.20;;;;;;;;;;5034190;28;87613;-82
2023/04/04 09:39:31;;;;;;;4.22;1.27;;;;;;;;;;5041059;28;94076;-82
2023/04/04 09:41:58;;;;;;;;;;;;;;;;;;5033923;27;87651;-80
2023/04/04 09:44:24;;;;;;;5.07;1.40;;;;;;;;;;5038664;27;93113;-79
2023/04/04 09:46:51;;;;;;;3.88;1.20;;;;;;;;;;5010319;28;90644;-79
2023/04/04 09:49:18;;;;;;;3.42;1.00;;;;;;;;;;5037343;27;87958;-79
2023/04/04 09:51:47;;;;;;;2.70;1.10;;;;;;;;;;5037291;27;88578;-79
2023/04/04 09:54:19;;;;;;;3.90;1.30;;;;;;;;;;5032274;27;90265;-80
2023/04/04 09:56:55;;;;;;;4.68;1.17;;;;;;;;;;5034418;27;87591;-79
2023/04/04 09:59:23;;;;;;;3.60;1.17;;;;;;;;;;5037959;27;87811;-78
2023/04/04 10:01:52;;;;;;;4.18;1.30;;;;;;;;;;5024911;28;87624;-79
2023/04/04 10:04:18;;;;;;;5.32;1.10;;;;;;;;;;5018929;28;89858;-79
2023/04/04 10:06:45;;;;;;;2.40;1.10;;;;;;;;;;5040472;27;88022;-80
2023/04/04 10:09:12;;;;;;;2.22;1.02;;;;;;;;;;5037507;27;87859;-79
2023/04/04 10:11:38;;;;;;;3.72;1.20;;;;;;;;;;5018178;28;88077;-80
2023/04/04 10:14:05;;;;;;;3.45;1.15;;;;;;;;;;5034151;28;88310;-79
2023/04/04 10:16:33;;;;;;;2.30;0.90;;;;;;;;;;5042321;27;88102;-80
2023/04/04 10:19:01;;;;;;;2.70;1.00;;;;;;;;;;5018099;28;89133;-80
2023/04/04 10:21:27;;;;;;;3.53;1.25;;;;;;;;;;5039276;27;88461;-80
2023/04/04 10:23:55;;;;;;;3.22;1.00;;;;;;;;;;5060913;27;88110;-81
2023/04/04 10:26:21;;;;;;;2.45;1.13;;;;;;;;;;5043021;27;89413;-79
2023/04/04 10:28:49;;;;;;;3.70;1.00;;;;;;;;;;5043376;27;89561;-78
2023/04/04 10:31:21;;;;;;;2.65;1.10;;;;;;;;;;5058790;27;88006;-80
2023/04/04 10:34:27;;;;;;;3.97;1.20;;;;;;;;;;5047900;27;90275;-80
2023/04/04 10:37:01;;;;;;;3.28;1.08;;;;;;;;;;4921369;28;87951;-79
2023/04/04 10:39:32;;;;;;;2.85;1.00;;;;;;;;;;4942498;28;88167;-80
2023/04/04 10:41:58;;;;;;;5.40;1.25;;;;;;;;;;4994974;28;88308;-79
2023/04/04 10:44:29;;;;;;;2.75;1.00;;;;;;;;;;5044977;27;87680;-80
2023/04/04 10:46:57;;;;;;;3.60;1.08;;;;;;;;;;5042511;27;88057;-80
2023/04/04 10:49:24;;;;;;;3.78;1.10;;;;;;;;;;5047107;27;88564;-81
2023/04/04 10:51:51;;;;;;;2.47;0.93;;;;;;;;;;5061338;27;88049;-81
2023/04/04 10:54:23;;;;;;;3.20;1.10;;;;;;;;;;5040989;27;92099;-80
2023/04/04 10:56:49;;;;;;;4.25;1.17;;;;;;;;;;5029489;28;88104;-79
2023/04/04 10:59:16;;;;;;;3.30;1.10;;;;;;;;;;5037569;27;88324;-80
2023/04/04 11:01:47;;;;;;;2.13;1.08;;;;;;;;;;5042405;27;91875;-80
2023/04/04 11:04:18;;;;;;;2.88;1.15;;;;;;;;;;5043297;27;88639;-81
2023/04/04 11:07:05;;;;;;;3.33;1.02;;;;;;;;;;5060277;27;88062;-80
2023/04/04 11:09:48;;;;;;;3.83;1.23;;;;;;;;;;5041224;27;93811;-84
2023/04/04 11:12:22;;;;;;;4.47;1.10;;;;;;;;;;5034969;27;89939;-83
2023/04/04 11:14:55;;;;;;;9.05;1.27;;;;;;;;;;5058672;27;88692;-85
2023/04/04 11:17:41;;;;;;;5.43;1.10;;;;;;;;;;5040454;27;89046;-85
2023/04/04 11:20:13;;;;;;;4.10;1.08;;;;;;;;;;5058795;27;89256;-82
2023/04/04 11:22:41;;;;;;;6.68;1.30;;;;;;;;;;5031487;27;88701;-83
2023/04/04 11:25:23;;;;;;;7.38;1.10;;;;;;;;;;5062581;27;87952;-83
2023/04/04 11:27:53;;;;;;;4.55;1.10;;;;;;;;;;5043471;27;88085;-84
2023/04/04 11:30:20;;;;;;;2.22;0.90;;;;;;;;;;5073754;27;88671;-85
2023/04/04 11:32:48;;;;;;;2.95;1.00;;;;;;;;;;5049900;27;87773;-83
2023/04/04 11:35:31;;;;;;;2.95;0.90;;;;;;;;;;5052566;27;94114;-83
2023/04/04 11:37:59;;;;;;;2.75;0.90;;;;;;;;;;5082135;27;87201;-83
2023/04/04 11:40:35;;;;;;;2.92;0.88;;;;;;;;;;5068864;27;88142;-82
2023/04/04 11:43:06;;;;;;;4.07;1.00;;;;;;;;;;5041877;27;88652;-82
2023/04/04 11:45:33;;;;;;;4.30;0.90;;;;;;;;;;5025463;27;93815;-80
2023/04/04 11:48:00;;;;;;;4.55;0.93;;;;;;;;;;5057988;27;88796;-83
2023/04/04 11:50:33;;;;;;;4.47;0.90;;;;;;;;;;5042563;27;89027;-81
2023/04/04 11:53:03;;;;;;;8.30;1.10;;;;;;;;;;5067855;27;87641;-81
2023/04/04 11:55:30;;;;;;;4.80;1.15;;;;;;;;;;5044990;27;88738;-80
2023/04/04 11:58:04;;;;;;;2.25;1.10;;;;;;;;;;5066478;27;87930;-80
2023/04/04 12:00:31;;;;;;;4.32;0.95;;;;;;;;;;5051246;27;89587;-80
2023/04/04 12:02:58;;;;;;;6.00;1.33;;;;;;;;;;5065085;27;89584;-80
2023/04/04 12:05:25;;;;;;;8.93;2.33;;;;;;;;;;5063313;27;87710;-80
2023/04/04 12:07:52;;;;;;;18.02;8.23;;;;;;;;;;5066803;27;88106;-81
2023/04/04 12:10:18;;;;;;;21.90;10.05;;;;;;;;;;5064002;27;89099;-81
2023/04/04 12:12:45;;;;;;;32.75;17.40;;;;;;;;;;5044953;27;89531;-80
2023/04/04 12:15:15;;;;;;;34.65;19.92;;;;;;;;;;5065669;27;90419;-80
2023/04/04 12:17:44;;;;;;;35.47;20.15;;;;;;;;;;5044949;27;89372;-81
2023/04/04 12:20:14;;;;;;;34.97;19.65;;;;;;;;;;5063855;27;89144;-81
2023/04/04 12:22:40;;;;;;;32.70;19.25;;;;;;;;;;5063828;27;90130;-81
2023/04/04 12:25:08;;;;;;;31.80;18.30;;;;;;;;;;5062767;27;89104;-81
2023/04/04 12:27:35;;;;;;;29.20;16.83;;;;;;;;;;5045121;27;88823;-80
2023/04/04 12:30:03;;;;;;;30.92;16.42;;;;;;;;;;5044748;27;88923;-79
2023/04/04 12:32:30;;;;;;;24.63;14.48;;;;;;;;;;5044174;27;88801;-79
2023/04/04 12:34:59;;;;;;;25.13;13.90;;;;;;;;;;5062824;27;88462;-79
2023/04/04 12:37:29;;;;;;;22.98;13.18;;;;;;;;;;5065757;27;89184;-79
2023/04/04 12:39:56;;;;;;;23.52;12.27;;;;;;;;;;5063151;27;89233;-80
2023/04/04 12:42:24;;;;;;;20.95;11.68;;;;;;;;;;5062147;27;89285;-80
2023/04/04 12:44:51;;;;;;;17.73;10.32;;;;;;;;;;5059887;27;90047;-80
2023/04/04 12:47:19;;;;;;;17.23;10.23;;;;;;;;;;5042932;27;89228;-81
2023/04/04 12:49:49;;;;;;;19.17;10.88;;;;;;;;;;5061613;27;88294;-81
2023/04/04 12:52:17;;;;;;;17.17;9.75;;;;;;;;;;5044151;27;89005;-80
2023/04/04 12:54:45;;;;;;;19.02;10.38;;;;;;;;;;5062327;27;87931;-80
2023/04/04 12:57:20;;;;;;;18.92;10.75;;;;;;;;;;5064515;27;88616;-80
2023/04/04 12:59:46;;;;;;;17.75;10.15;;;;;;;;;;5061629;27;88748;-80
2023/04/04 13:02:15;;;;;;;16.80;9.93;;;;;;;;;;5045154;27;88798;-81
2023/04/04 13:04:46;;;;;;;17.30;9.60;;;;;;;;;;5064057;27;88405;-80
2023/04/04 13:07:31;;;;;;;16.58;9.20;;;;;;;;;;5029613;27;90128;-80
2023/04/04 13:10:04;;;;;;;15.65;7.80;;;;;;;;;;5062292;27;88625;-82
2023/04/04 13:12:30;;;;;;;;;;;;;;;;;;5062418;27;88430;-81
2023/04/04 13:15:01;;;;;;;12.05;5.72;;;;;;;;;;5064540;27;112755;-81
2023/04/04 13:17:43;;;;;;;19.52;6.30;;;;;;;;;;5044806;27;89729;-80
2023/04/04 13:20:11;;;;;;;13.27;7.07;;;;;;;;;;5030915;27;89627;-80
2023/04/04 13:22:39;;;;;;;12.88;6.50;;;;;;;;;;5063653;27;88807;-80
2023/04/04 13:25:06;;;;;;;12.52;6.28;;;;;;;;;;5044584;27;90402;-80
2023/04/04 13:27:32;;;;;;;11.55;6.40;;;;;;;;;;5044932;27;96049;-81
2023/04/04 13:29:59;;;;;;;12.52;6.25;;;;;;;;;;5043972;27;88232;-80
2023/04/04 13:32:25;;;;;;;11.13;6.00;;;;;;;;;;5051891;27;91265;-80
2023/04/04 13:34:53;;;;;;;11.40;5.97;;;;;;;;;;5042967;27;88334;-80
2023/04/04 13:37:20;;;;;;;12.00;6.30;;;;;;;;;;5041553;27;88442;-80
2023/04/04 13:39:46;;;;;;;12.63;6.20;;;;;;;;;;5024896;28;89532;-80
2023/04/04 13:42:13;;;;;;;10.23;4.88;;;;;;;;;;5046244;27;87698;-80
2023/04/04 13:44:39;;;;;;;10.77;5.80;;;;;;;;;;5026735;27;88840;-80
2023/04/04 13:47:06;;;;;;;11.40;5.20;;;;;;;;;;5021884;28;87928;-79
2023/04/04 13:49:32;;;;;;;10.25;5.03;;;;;;;;;;5037607;27;89038;-81
2023/04/04 13:51:59;;;;;;;10.90;5.10;;;;;;;;;;5044769;27;90121;-81
2023/04/04 13:54:25;;;;;;;11.00;5.05;;;;;;;;;;5039963;28;88105;-80
2023/04/04 13:56:52;;;;;;;10.07;5.07;;;;;;;;;;5040155;28;87748;-81
2023/04/04 13:59:21;;;;;;;9.00;4.57;;;;;;;;;;5044471;27;89238;-80
2023/04/04 14:01:47;;;;;;;9.95;5.10;;;;;;;;;;5048265;27;88814;-81
2023/04/04 14:04:14;;;;;;;9.40;4.70;;;;;;;;;;5031118;28;89364;-80
2023/04/04 14:06:49;;;;;;;9.80;4.43;;;;;;;;;;5028958;28;88617;-81
2023/04/04 14:09:16;;;;;;;9.02;4.35;;;;;;;;;;5036672;27;89028;-80
2023/04/04 14:11:42;;;;;;;8.32;4.10;;;;;;;;;;5047153;27;88343;-80
2023/04/04 14:14:09;;;;;;;9.02;3.90;;;;;;;;;;5023983;27;88703;-79
2023/04/04 14:16:35;;;;;;;9.02;4.45;;;;;;;;;;5031753;27;89987;-81
2023/04/04 14:19:02;;;;;;;9.18;3.88;;;;;;;;;;5039192;28;87918;-81
2023/04/04 14:21:28;;;;;;;9.20;3.85;;;;;;;;;;5030033;27;89958;-81
2023/04/04 14:23:55;;;;;;;9.05;4.10;;;;;;;;;;5060605;27;87962;-80
2023/04/04 14:26:21;;;;;;;9.13;4.20;;;;;;;;;;5051460;27;87853;-79
2023/04/04 14:28:48;;;;;;;10.45;3.90;;;;;;;;;;5059101;27;88238;-80
2023/04/04 14:31:14;;;;;;;9.45;3.90;;;;;;;;;;5051628;27;87392;-81
2023/04/04 14:33:41;;;;;;;9.13;4.20;;;;;;;;;;5057879;27;88117;-80
2023/04/04 14:36:07;;;;;;;9.70;3.95;;;;;;;;;;5041834;27;87664;-80
2023/04/04 14:38:34;;;;;;;10.25;4.22;;;;;;;;;;5032290;28;88827;-80
2023/04/04 14:41:00;;;;;;;8.88;4.03;;;;;;;;;;5041718;27;88866;-79
2023/04/04 14:43:27;;;;;;;9.68;4.00;;;;;;;;;;5038116;27;89010;-78
2023/04/04 14:45:54;;;;;;;9.10;4.00;;;;;;;;;;5021760;28;89420;-78
2023/04/04 14:48:20;;;;;;;8.35;3.63;;;;;;;;;;5027045;28;87958;-80
2023/04/04 14:50:47;;;;;;;8.98;3.42;;;;;;;;;;5030857;28;89211;-79